Marmet, WV (25315)

8:06 AM EDT en Septiembre 21, 2014 (GMT -0400)
RAWS BEE MOUNTAIN WV US | Change Station
CLOSE
Current Station
Estación meteorológica personal
Location: Hernshaw, WV
Altura: 1353 ft
Estaciones meteorológicas cercanas

Alt 1353 ft 38.20 °N, 81.62 °W | Updated 49 minutes ago

Parcialmente nublado
Parcialmente nublado
63 ° F
Sensación térmica 63 ° F
N
8
Viento Variable Viento desde OSO
Gusts 12.0 mph

Hoy
Alta -- | Baja -- ° F
--% Posibilidad de precipitaciones
Ayer
Alta -- | Baja -- ° F
Precip. -- pul
7:13 AM 7:24 PM
Creciente menguante, 7% visible
Presión 29.88 pul
Visibilidad 9.0 Millas
Nubes Nubes dispersas 7000 ft
Punto de rocío 61 ° F
Humedad 92%
Precipitaciones 0.00 pul
Espesor de la nieve No disponible.
UV 0 de una escala de 12
Polen 3.80 de una escala de 12
Calidad del aire No disponible.
Flu Activity No disponible.
METAR KCRW 211154Z 19004KT 9SM SCT070 18/17 A2990 RMK AO2 SLP119 VLY FG T01830172 10183 20156 55001 $

More Conditions Fewer Conditions

Presión 29.88 pul
Visibilidad 9.0 Millas
Nubes Nubes dispersas 7000 ft
Punto de rocío 61 ° F
Humedad 92%
Precipitaciones 0.00 pul
Espesor de la nieve No disponible.
UV 0 de una escala de 12
Polen 3.80 de una escala de 12
Calidad del aire No disponible.
Flu Activity No disponible.
METAR KCRW 211154Z 19004KT 9SM SCT070 18/17 A2990 RMK AO2 SLP119 VLY FG T01830172 10183 20156 55001 $

More Conditions Fewer Conditions

10-Day Weather Forecast

Almanac

Astronomía

Sep. 21, 2014 Salida Puesta
Hora real 7:13 AM EDT 7:24 PM EDT
Crepúsculo civil 6:46 AM EDT 7:51 PM EDT
Crepúsculo náutico 6:15 AM EDT 8:21 PM EDT
Crepúsculo astronómico 5:44 AM EDT 8:53 PM EDT
Luna 4:47 AM EDT 5:58 PM EDT
Horas de luz 13h 04m
Horas de luz
12h 11m
Tomorrow will be 2m 27s shorter.
Creciente menguante, 7% of the Moon is Illuminated
Hoy
Creciente menguante
Sep 24
Nueva
Oct 1
Cuarto creciente
Oct 8
Luna llena
Oct 15
Cuarto menguante

Extremos de hoy

Máximos del estado Bajos del estado

Community

WunderPhotos

Upload Photos

1,755,126 ¡fotos cargadas!

Nearby

Grosos de nieve

Estación Profundido Altura
No tenemos constancia de nieve nueva.

Actividad de terremotos

Ciudad Distance Mag. Tiempo y dato
No hay informes recientes de la actividad sísmica.
Magnitud mínima muestra es 2,5.

Temperaturas de aguas costeras

Lugar Temperatura
Sin partes meteorológicos de las estaciones

Estaciones meteorológicas cercanas